createdAt,value
2023-05-24T00:00:38.310Z,21.70
2023-05-24T00:03:07.681Z,21.68
2023-05-24T00:05:38.648Z,21.61
2023-05-24T00:08:07.065Z,21.56
2023-05-24T00:10:35.407Z,21.47
2023-05-24T00:13:03.754Z,21.35
2023-05-24T00:15:32.056Z,21.28
2023-05-24T00:18:00.470Z,21.26
2023-05-24T00:20:28.841Z,21.19
2023-05-24T00:22:57.213Z,21.08
2023-05-24T00:25:25.628Z,21.06
2023-05-24T00:27:53.935Z,21.00
2023-05-24T00:30:22.274Z,20.92
2023-05-24T00:32:50.563Z,20.90
2023-05-24T00:35:18.894Z,20.91
2023-05-24T00:37:47.353Z,20.89
2023-05-24T00:40:15.747Z,20.81
2023-05-24T00:42:44.052Z,20.75
2023-05-24T00:45:12.563Z,20.61
2023-05-24T00:47:41.227Z,20.52
2023-05-24T00:50:13.867Z,20.49
2023-05-24T00:52:46.329Z,20.40
2023-05-24T00:55:15.030Z,20.32
2023-05-24T00:57:43.737Z,20.27
2023-05-24T01:00:12.647Z,20.20
2023-05-24T01:02:41.189Z,20.18
2023-05-24T01:05:10.075Z,20.12
2023-05-24T01:08:10.793Z,20.11
2023-05-24T01:10:47.657Z,20.01
2023-05-24T01:13:26.058Z,19.93
2023-05-24T01:16:06.710Z,19.83
2023-05-24T01:18:40.196Z,19.74
2023-05-24T01:21:15.283Z,19.65
2023-05-24T01:23:51.927Z,19.60
2023-05-24T01:26:27.677Z,19.54
2023-05-24T01:28:56.456Z,19.48
2023-05-24T01:31:25.750Z,19.41
2023-05-24T01:33:54.338Z,19.33
2023-05-24T01:36:22.765Z,19.26
2023-05-24T01:38:53.013Z,19.13
2023-05-24T01:41:24.225Z,19.06
2023-05-24T01:44:14.932Z,19.04
2023-05-24T01:46:43.300Z,19.02
2023-05-24T01:49:43.489Z,19.03
2023-05-24T01:52:20.762Z,19.01
2023-05-24T01:54:53.796Z,18.98
2023-05-24T01:57:23.600Z,18.92
2023-05-24T01:59:53.623Z,18.84
2023-05-24T02:02:22.315Z,18.78
2023-05-24T02:04:51.141Z,18.75
2023-05-24T02:07:20.176Z,18.68
2023-05-24T02:09:48.548Z,18.62
2023-05-24T02:12:16.867Z,18.59
2023-05-24T02:14:45.130Z,18.58
2023-05-24T02:17:13.547Z,18.47
2023-05-24T02:19:41.989Z,18.35
2023-05-24T02:22:10.396Z,18.26
2023-05-24T02:24:38.728Z,18.17
2023-05-24T02:27:07.594Z,18.05
2023-05-24T02:29:36.024Z,17.97
2023-05-24T02:32:04.275Z,17.90
2023-05-24T02:34:32.902Z,17.85
2023-05-24T02:37:01.164Z,17.81
2023-05-24T02:39:29.544Z,17.79
2023-05-24T02:41:57.861Z,17.73
2023-05-24T02:44:26.161Z,17.65
2023-05-24T02:46:54.494Z,17.59
2023-05-24T02:49:22.726Z,17.51
2023-05-24T02:51:51.331Z,17.47
2023-05-24T02:54:19.726Z,17.44
2023-05-24T02:56:48.768Z,17.37
2023-05-24T02:59:17.133Z,17.36
2023-05-24T03:01:45.580Z,17.29
2023-05-24T03:04:13.838Z,17.22
2023-05-24T03:06:42.076Z,17.19
2023-05-24T03:09:10.293Z,17.16
2023-05-24T03:11:38.547Z,17.12
2023-05-24T03:14:07.659Z,17.09
2023-05-24T03:16:35.988Z,17.08
2023-05-24T03:19:06.494Z,17.03
2023-05-24T03:21:35.966Z,17.00
2023-05-24T03:24:04.294Z,16.95
2023-05-24T03:26:32.532Z,16.94
2023-05-24T03:29:00.750Z,16.93
2023-05-24T03:31:28.995Z,16.91
2023-05-24T03:33:57.429Z,16.87
2023-05-24T03:36:27.162Z,16.81
2023-05-24T03:38:55.975Z,16.76
2023-05-24T03:41:24.246Z,16.73
2023-05-24T03:43:53.816Z,16.70
2023-05-24T03:46:22.179Z,16.62
2023-05-24T03:48:50.863Z,16.59
2023-05-24T03:51:19.162Z,16.55
2023-05-24T03:53:47.379Z,16.51
2023-05-24T03:56:15.607Z,16.50
2023-05-24T03:58:43.872Z,16.46
2023-05-24T04:01:25.347Z,16.44
2023-05-24T04:03:58.205Z,16.41
2023-05-24T04:06:30.018Z,16.36
2023-05-24T04:09:00.106Z,16.34
2023-05-24T04:11:29.334Z,16.29
2023-05-24T04:13:58.481Z,16.25
2023-05-24T04:16:27.346Z,16.19
2023-05-24T04:18:58.935Z,16.16
2023-05-24T04:21:27.254Z,16.10
2023-05-24T04:23:56.785Z,16.06
2023-05-24T04:26:25.019Z,16.00
2023-05-24T04:28:53.391Z,15.96
2023-05-24T04:31:22.725Z,15.90
2023-05-24T04:33:51.446Z,15.88
2023-05-24T04:36:20.293Z,15.86
2023-05-24T04:38:48.521Z,15.84
2023-05-24T04:41:16.956Z,15.82
2023-05-24T04:43:45.809Z,15.80
2023-05-24T04:46:14.558Z,15.78
2023-05-24T04:48:43.049Z,15.73
2023-05-24T04:51:11.365Z,15.71
2023-05-24T04:53:39.741Z,15.70
2023-05-24T04:56:08.071Z,15.65
2023-05-24T04:58:38.121Z,15.61
2023-05-24T05:01:07.627Z,15.60
2023-05-24T05:03:36.037Z,15.58
2023-05-24T05:06:04.859Z,15.57
2023-05-24T05:08:33.448Z,15.51
2023-05-24T05:11:02.055Z,15.48
2023-05-24T05:13:30.296Z,15.43
2023-05-24T05:15:58.492Z,15.43
2023-05-24T05:18:26.741Z,15.41
2023-05-24T05:20:55.154Z,15.35
2023-05-24T05:23:23.389Z,15.31
2023-05-24T05:25:52.077Z,15.28
2023-05-24T05:28:20.344Z,15.27
2023-05-24T05:30:48.778Z,15.25
2023-05-24T05:33:17.309Z,15.21
2023-05-24T05:35:45.609Z,15.20
2023-05-24T05:38:14.181Z,15.18
2023-05-24T05:40:42.671Z,15.15
2023-05-24T05:43:11.253Z,15.13
2023-05-24T05:45:39.688Z,15.10
2023-05-24T05:48:08.136Z,15.05
2023-05-24T05:50:36.549Z,15.06
2023-05-24T05:53:04.785Z,15.03
2023-05-24T05:55:33.021Z,15.04
2023-05-24T05:58:01.393Z,15.02
2023-05-24T06:00:29.658Z,14.98
2023-05-24T06:02:58.014Z,14.98
2023-05-24T06:05:26.537Z,14.98
2023-05-24T06:07:54.904Z,15.00
2023-05-24T06:10:23.109Z,14.99
2023-05-24T06:12:51.884Z,14.99
2023-05-24T06:15:23.453Z,14.97
2023-05-24T06:17:53.508Z,14.92
2023-05-24T06:20:21.866Z,14.89
2023-05-24T06:22:51.665Z,14.85
2023-05-24T06:25:21.651Z,14.79
2023-05-24T06:27:50.075Z,14.77
2023-05-24T06:30:19.026Z,14.79
2023-05-24T06:32:47.410Z,14.81
2023-05-24T06:35:15.626Z,14.81
2023-05-24T06:37:44.489Z,14.82
2023-05-24T06:40:13.833Z,14.84
2023-05-24T06:42:42.179Z,14.85
2023-05-24T06:45:10.837Z,14.81
2023-05-24T06:47:39.198Z,14.80
2023-05-24T06:50:08.234Z,14.78
2023-05-24T06:52:36.756Z,14.75
2023-05-24T06:55:05.574Z,14.70
2023-05-24T06:57:33.794Z,14.68
2023-05-24T07:00:02.463Z,14.68
2023-05-24T07:02:30.749Z,14.63
2023-05-24T07:04:59.123Z,14.63
2023-05-24T07:07:27.668Z,14.62
2023-05-24T07:09:56.273Z,14.61
2023-05-24T07:12:24.621Z,14.59
2023-05-24T07:14:53.223Z,14.58
2023-05-24T07:17:22.022Z,14.56
2023-05-24T07:19:50.382Z,14.58
2023-05-24T07:22:18.789Z,14.54
2023-05-24T07:24:47.131Z,14.50
2023-05-24T07:27:15.382Z,14.46
2023-05-24T07:29:44.728Z,14.40
2023-05-24T07:32:14.610Z,14.39
2023-05-24T07:34:42.901Z,14.35
2023-05-24T07:37:11.316Z,14.34
2023-05-24T07:39:39.951Z,14.34
2023-05-24T07:42:08.312Z,14.34
2023-05-24T07:44:36.950Z,14.36
2023-05-24T07:47:05.367Z,14.39
2023-05-24T07:49:33.618Z,14.41
2023-05-24T07:52:01.951Z,14.41
2023-05-24T07:54:30.226Z,14.40
2023-05-24T07:56:58.663Z,14.40
2023-05-24T07:59:27.160Z,14.43
2023-05-24T08:01:55.428Z,14.42
2023-05-24T08:04:24.734Z,14.41
2023-05-24T08:06:53.126Z,14.45
2023-05-24T08:09:21.450Z,14.44
2023-05-24T08:11:49.672Z,14.43
2023-05-24T08:14:17.926Z,14.40
2023-05-24T08:16:46.301Z,14.37
2023-05-24T08:19:14.883Z,14.36
2023-05-24T08:21:43.334Z,14.32
2023-05-24T08:24:11.677Z,14.29
2023-05-24T08:26:39.958Z,14.25
2023-05-24T08:29:08.694Z,14.23
2023-05-24T08:31:37.065Z,14.20
2023-05-24T08:34:06.154Z,14.18
2023-05-24T08:36:34.391Z,14.15
2023-05-24T08:39:02.624Z,14.11
2023-05-24T08:41:33.478Z,14.12
2023-05-24T08:44:03.305Z,14.12
2023-05-24T08:46:32.575Z,14.10
2023-05-24T08:49:02.419Z,14.06
2023-05-24T08:51:34.605Z,14.05
2023-05-24T08:54:03.297Z,14.03
2023-05-24T08:56:32.366Z,14.02
2023-05-24T08:59:01.026Z,14.05
2023-05-24T09:01:32.285Z,14.07
2023-05-24T09:04:04.010Z,14.05
2023-05-24T09:06:33.416Z,14.04
2023-05-24T09:09:04.623Z,14.02
2023-05-24T09:11:34.285Z,14.03
2023-05-24T09:14:03.916Z,14.02
2023-05-24T09:16:32.757Z,13.98
2023-05-24T09:19:01.004Z,13.99
2023-05-24T09:21:30.547Z,14.00
2023-05-24T09:23:59.590Z,13.99
2023-05-24T09:26:32.669Z,13.97
2023-05-24T09:29:00.979Z,13.94
2023-05-24T09:31:40.763Z,13.91
2023-05-24T09:34:16.058Z,13.87
2023-05-24T09:36:47.036Z,13.83
2023-05-24T09:39:15.216Z,13.83
2023-05-24T09:41:45.899Z,13.83
2023-05-24T09:44:17.617Z,13.84
2023-05-24T09:46:46.655Z,13.85
2023-05-24T09:49:15.286Z,13.84
2023-05-24T09:51:43.556Z,13.79
2023-05-24T09:54:13.668Z,13.78
2023-05-24T09:56:42.032Z,13.76
2023-05-24T09:59:10.739Z,13.73
2023-05-24T10:01:39.173Z,13.69
2023-05-24T10:04:10.253Z,13.68
2023-05-24T10:06:40.059Z,13.67
2023-05-24T10:09:10.299Z,13.66
2023-05-24T10:11:38.625Z,13.64
2023-05-24T10:14:08.295Z,13.66
2023-05-24T10:16:39.092Z,13.64
2023-05-24T10:19:08.134Z,13.60
2023-05-24T10:21:41.033Z,13.60
2023-05-24T10:24:12.529Z,13.60
2023-05-24T10:26:43.342Z,13.59
2023-05-24T10:29:18.829Z,13.54
2023-05-24T10:31:47.832Z,13.54
2023-05-24T10:34:16.573Z,13.53
2023-05-24T10:36:46.330Z,13.50
2023-05-24T10:39:14.767Z,13.49
2023-05-24T10:41:43.737Z,13.48
2023-05-24T10:44:14.178Z,13.46
2023-05-24T10:47:09.666Z,13.44
2023-05-24T10:49:40.535Z,13.42
2023-05-24T10:52:11.187Z,13.39
2023-05-24T10:54:44.771Z,13.37
2023-05-24T10:57:25.999Z,13.38
2023-05-24T10:59:58.043Z,13.37
2023-05-24T11:02:36.442Z,13.36
2023-05-24T11:05:07.227Z,13.37
2023-05-24T11:07:46.167Z,13.37
2023-05-24T11:10:32.159Z,13.37
2023-05-24T11:13:04.905Z,13.36
2023-05-24T11:15:33.154Z,13.37
2023-05-24T11:18:10.484Z,13.35
2023-05-24T11:20:39.487Z,13.32
2023-05-24T11:23:10.104Z,13.33
2023-05-24T11:25:39.557Z,13.38
2023-05-24T11:28:12.135Z,13.42
2023-05-24T11:30:47.779Z,13.46
2023-05-24T11:33:24.417Z,13.48
2023-05-24T11:35:53.865Z,13.51
2023-05-24T11:38:24.891Z,13.51
2023-05-24T11:40:54.120Z,13.52
2023-05-24T11:43:25.926Z,13.56
2023-05-24T11:45:54.466Z,13.59
2023-05-24T11:48:22.704Z,13.61
2023-05-24T11:50:51.020Z,13.60
2023-05-24T11:53:22.237Z,13.64
2023-05-24T11:55:50.729Z,13.64
2023-05-24T11:58:25.709Z,13.66
2023-05-24T12:00:54.062Z,13.68
2023-05-24T12:03:22.674Z,13.69
2023-05-24T12:05:50.986Z,13.70
2023-05-24T12:08:19.277Z,13.70
2023-05-24T12:10:49.934Z,13.72
2023-05-24T12:13:27.973Z,13.74
2023-05-24T12:15:57.317Z,13.73
2023-05-24T12:18:27.345Z,13.74
2023-05-24T12:20:56.085Z,13.74
2023-05-24T12:23:29.400Z,13.72
2023-05-24T12:26:01.790Z,13.71
2023-05-24T12:28:39.445Z,13.72
2023-05-24T12:31:08.042Z,13.74
2023-05-24T12:33:36.693Z,13.78
2023-05-24T12:36:06.104Z,13.82
2023-05-24T12:38:34.432Z,13.83
2023-05-24T12:43:33.737Z,13.85
2023-05-24T12:46:02.536Z,13.80
2023-05-24T12:48:30.792Z,13.78
2023-05-24T12:50:59.126Z,13.77
2023-05-24T12:53:27.746Z,13.79
2023-05-24T12:55:56.965Z,13.79
2023-05-24T12:58:25.471Z,13.80
2023-05-24T13:00:53.853Z,13.78
2023-05-24T13:03:22.225Z,13.74
2023-05-24T13:05:50.669Z,13.69
2023-05-24T13:08:19.173Z,13.66
2023-05-24T13:10:47.634Z,13.66
2023-05-24T13:13:15.971Z,13.67
2023-05-24T13:15:45.456Z,13.69
2023-05-24T13:18:14.037Z,13.73
2023-05-24T13:20:42.569Z,13.75
2023-05-24T13:23:11.158Z,13.79
2023-05-24T13:25:39.357Z,13.82
2023-05-24T13:28:07.921Z,13.83
2023-05-24T13:30:36.232Z,13.85
2023-05-24T13:33:04.574Z,13.88
2023-05-24T13:35:33.053Z,13.89
2023-05-24T13:38:01.323Z,13.88
2023-05-24T13:40:29.679Z,13.87
2023-05-24T13:42:58.543Z,13.87
2023-05-24T13:45:27.167Z,13.85
2023-05-24T13:47:59.171Z,13.84
2023-05-24T13:50:27.748Z,13.86
2023-05-24T13:52:56.970Z,13.82
2023-05-24T13:55:25.943Z,13.82
2023-05-24T13:57:56.248Z,13.83
2023-05-24T14:00:25.064Z,13.85
2023-05-24T14:02:53.843Z,13.86
2023-05-24T14:05:27.362Z,13.86
2023-05-24T14:07:57.463Z,13.87
2023-05-24T14:10:26.092Z,13.90
2023-05-24T14:13:13.195Z,13.92
2023-05-24T14:15:43.223Z,13.94
2023-05-24T14:18:12.022Z,13.97
2023-05-24T14:20:41.653Z,13.99
2023-05-24T14:23:10.731Z,13.98
2023-05-24T14:25:39.160Z,13.97
2023-05-24T14:28:09.272Z,14.01
2023-05-24T14:30:38.634Z,14.04
2023-05-24T14:33:12.008Z,14.09
2023-05-24T14:35:40.754Z,14.10
2023-05-24T14:38:10.977Z,14.11
2023-05-24T14:40:41.574Z,14.07
2023-05-24T14:43:11.325Z,14.06
2023-05-24T14:45:44.532Z,14.05
2023-05-24T14:48:13.314Z,14.08
2023-05-24T14:50:42.289Z,14.08
2023-05-24T14:53:14.642Z,14.08
2023-05-24T14:55:44.507Z,14.11
2023-05-24T14:58:13.481Z,14.15
2023-05-24T15:00:43.515Z,14.16
2023-05-24T15:03:13.377Z,14.18
2023-05-24T15:05:43.441Z,14.24
2023-05-24T15:08:12.203Z,14.29
2023-05-24T15:10:41.143Z,14.33
2023-05-24T15:13:09.616Z,14.35
2023-05-24T15:15:37.900Z,14.34
2023-05-24T15:18:06.670Z,14.40
2023-05-24T15:20:36.020Z,14.46
2023-05-24T15:23:04.685Z,14.53
2023-05-24T15:25:32.947Z,14.59
2023-05-24T15:28:01.356Z,14.65
2023-05-24T15:30:29.679Z,14.70
2023-05-24T15:32:59.805Z,14.78
2023-05-24T15:35:28.518Z,14.90
2023-05-24T15:37:56.776Z,14.95
2023-05-24T15:40:25.247Z,14.98
2023-05-24T15:42:53.861Z,15.00
2023-05-24T15:45:22.268Z,15.03
2023-05-24T15:47:50.737Z,15.09
2023-05-24T15:50:25.878Z,15.13
2023-05-24T15:53:00.457Z,15.14
2023-05-24T15:55:28.760Z,15.17
2023-05-24T15:57:59.255Z,15.22
2023-05-24T16:00:27.922Z,15.25
2023-05-24T16:02:57.760Z,15.25
2023-05-24T16:05:27.739Z,15.31
2023-05-24T16:07:56.279Z,15.37
2023-05-24T16:10:24.619Z,15.42
2023-05-24T16:12:52.866Z,15.52
2023-05-24T16:15:21.080Z,15.59
2023-05-24T16:17:49.541Z,15.61
2023-05-24T16:20:17.865Z,15.70
2023-05-24T16:22:52.477Z,15.83
2023-05-24T16:25:20.323Z,15.91
2023-05-24T16:27:48.619Z,15.96
2023-05-24T16:30:16.932Z,15.99
2023-05-24T16:32:46.193Z,16.08
2023-05-24T16:35:14.645Z,16.18
2023-05-24T16:37:42.961Z,16.20
2023-05-24T16:40:11.989Z,16.22
2023-05-24T16:42:40.221Z,16.32
2023-05-24T16:45:08.940Z,16.38
2023-05-24T16:47:37.525Z,16.41
2023-05-24T16:50:06.428Z,16.46
2023-05-24T16:52:34.685Z,16.53
2023-05-24T16:55:02.948Z,16.60
2023-05-24T16:57:31.204Z,16.73
2023-05-24T16:59:59.504Z,16.88
2023-05-24T17:02:28.172Z,16.99
2023-05-24T17:04:56.447Z,17.07
2023-05-24T17:07:24.775Z,17.15
2023-05-24T17:09:53.250Z,17.25
2023-05-24T17:12:24.793Z,17.24
2023-05-24T17:14:53.602Z,17.17
2023-05-24T17:17:21.960Z,17.12
2023-05-24T17:19:50.270Z,17.08
2023-05-24T17:22:18.592Z,17.08
2023-05-24T17:24:47.352Z,17.06
2023-05-24T17:27:16.446Z,17.03
2023-05-24T17:29:48.136Z,17.05
2023-05-24T17:32:16.380Z,17.08
2023-05-24T17:34:44.592Z,17.20
2023-05-24T17:37:12.832Z,17.28
2023-05-24T17:39:41.155Z,17.32
2023-05-24T17:42:09.644Z,17.40
2023-05-24T17:44:37.885Z,17.51
2023-05-24T17:47:06.479Z,17.53
2023-05-24T17:49:34.719Z,17.65
2023-05-24T17:52:02.949Z,17.74
2023-05-24T17:54:31.386Z,17.83
2023-05-24T17:56:59.609Z,17.93
2023-05-24T17:59:28.157Z,17.89
2023-05-24T18:01:56.413Z,18.03
2023-05-24T18:04:24.661Z,18.19
2023-05-24T18:06:52.892Z,18.22
2023-05-24T18:09:22.358Z,18.15
2023-05-24T18:11:50.690Z,18.16
2023-05-24T18:14:19.267Z,18.43
2023-05-24T18:16:47.615Z,18.44
2023-05-24T18:19:15.874Z,18.51
2023-05-24T18:21:44.147Z,18.59
2023-05-24T18:24:12.346Z,18.64
2023-05-24T18:26:40.570Z,18.91
2023-05-24T18:29:08.837Z,19.21
2023-05-24T18:31:37.393Z,19.26
2023-05-24T18:34:05.761Z,19.07
2023-05-24T18:36:34.148Z,19.21
2023-05-24T18:39:02.394Z,19.31
2023-05-24T18:41:30.769Z,19.27
2023-05-24T18:43:59.034Z,19.27
2023-05-24T18:46:28.605Z,19.31
2023-05-24T18:48:59.444Z,19.39
2023-05-24T18:51:27.959Z,19.57
2023-05-24T18:53:56.234Z,19.78
2023-05-24T18:56:25.118Z,19.95
2023-05-24T18:58:55.071Z,20.06
2023-05-24T19:01:23.411Z,20.16
2023-05-24T19:03:51.886Z,20.22
2023-05-24T19:06:20.142Z,20.33
2023-05-24T19:08:48.574Z,20.41
2023-05-24T19:11:16.995Z,20.48
2023-05-24T19:13:45.232Z,20.59
2023-05-24T19:16:18.149Z,20.77
2023-05-24T19:18:47.287Z,20.78
2023-05-24T19:21:15.799Z,20.90
2023-05-24T19:23:44.144Z,20.99
2023-05-24T19:26:12.721Z,21.06
2023-05-24T19:28:43.050Z,21.22
2023-05-24T19:31:11.476Z,21.36
2023-05-24T19:33:48.735Z,21.42
2023-05-24T19:36:27.530Z,21.50
2023-05-24T19:38:55.776Z,21.65
2023-05-24T19:41:24.071Z,21.80
2023-05-24T19:43:53.529Z,21.94
2023-05-24T19:46:24.452Z,22.00
2023-05-24T19:48:52.782Z,22.10
2023-05-24T19:51:21.225Z,22.34
2023-05-24T19:53:49.529Z,22.57
2023-05-24T19:56:17.831Z,22.63
2023-05-24T19:58:46.102Z,22.70
2023-05-24T20:01:14.449Z,22.66
2023-05-24T20:03:48.978Z,22.69
2023-05-24T20:06:17.752Z,22.78
2023-05-24T20:08:47.543Z,22.98
2023-05-24T20:11:15.866Z,23.23
2023-05-24T20:13:44.125Z,23.42
2023-05-24T20:16:12.425Z,23.60
2023-05-24T20:18:40.731Z,23.67
2023-05-24T20:21:08.936Z,23.66
2023-05-24T20:23:37.217Z,23.67
2023-05-24T20:26:05.739Z,23.66
2023-05-24T20:28:34.088Z,23.69
2023-05-24T20:31:02.604Z,23.90
2023-05-24T20:33:30.920Z,24.07
2023-05-24T20:35:59.693Z,24.16
2023-05-24T20:38:28.279Z,24.42
2023-05-24T20:40:56.556Z,24.66
2023-05-24T20:43:24.800Z,24.81
2023-05-24T20:45:53.239Z,24.86
2023-05-24T20:48:21.934Z,24.99
2023-05-24T20:50:50.220Z,25.10
2023-05-24T20:53:19.216Z,25.12
2023-05-24T20:55:47.501Z,25.20
2023-05-24T20:58:17.908Z,25.35
2023-05-24T21:00:46.437Z,25.43
2023-05-24T21:03:14.858Z,25.47
2023-05-24T21:05:43.529Z,25.51
2023-05-24T21:08:11.997Z,25.59
2023-05-24T21:10:40.307Z,25.69
2023-05-24T21:13:08.697Z,25.79
2023-05-24T21:15:36.942Z,25.88
2023-05-24T21:18:05.514Z,25.96
2023-05-24T21:20:33.935Z,26.08
2023-05-24T21:23:02.278Z,26.17
2023-05-24T21:25:30.543Z,26.21
2023-05-24T21:27:58.822Z,26.28
2023-05-24T21:30:27.534Z,26.33
2023-05-24T21:32:55.831Z,26.33
2023-05-24T21:35:24.108Z,26.32
2023-05-24T21:37:53.401Z,26.36
2023-05-24T21:40:21.743Z,26.37
2023-05-24T21:42:49.963Z,26.41
2023-05-24T21:45:18.296Z,26.49
2023-05-24T21:47:46.609Z,26.59
2023-05-24T21:50:15.009Z,26.66
2023-05-24T21:52:43.442Z,26.77
2023-05-24T21:55:11.731Z,26.84
2023-05-24T21:57:40.128Z,26.84
2023-05-24T22:00:09.734Z,26.91
2023-05-24T22:02:38.419Z,26.90
2023-05-24T22:05:07.137Z,26.77
2023-05-24T22:07:35.472Z,26.73
2023-05-24T22:10:04.281Z,26.61
2023-05-24T22:12:32.531Z,26.56
2023-05-24T22:15:02.631Z,26.62
2023-05-24T22:17:33.473Z,26.63
2023-05-24T22:20:07.682Z,26.63
2023-05-24T22:22:37.302Z,26.60
2023-05-24T22:25:05.855Z,26.60
2023-05-24T22:27:36.703Z,26.69
2023-05-24T22:30:05.105Z,26.74
2023-05-24T22:32:33.405Z,26.74
2023-05-24T22:35:01.731Z,26.71
2023-05-24T22:37:29.976Z,26.61
2023-05-24T22:39:58.289Z,26.53
2023-05-24T22:42:26.564Z,26.47
2023-05-24T22:44:54.864Z,26.35
2023-05-24T22:47:24.755Z,26.31
2023-05-24T22:49:54.830Z,26.23
2023-05-24T22:52:25.414Z,26.09
2023-05-24T22:54:53.849Z,25.86
2023-05-24T22:57:23.418Z,25.61
2023-05-24T22:59:52.010Z,25.47
2023-05-24T23:02:20.421Z,25.35
2023-05-24T23:04:49.190Z,25.35
2023-05-24T23:07:17.583Z,25.23
2023-05-24T23:09:45.935Z,25.03
2023-05-24T23:12:15.009Z,24.85
2023-05-24T23:14:47.155Z,24.67
2023-05-24T23:17:15.756Z,24.52
2023-05-24T23:19:44.629Z,24.35
2023-05-24T23:22:14.203Z,24.16
2023-05-24T23:24:43.208Z,24.08
2023-05-24T23:27:12.141Z,23.98
2023-05-24T23:29:40.445Z,23.79
2023-05-24T23:32:10.116Z,23.55
2023-05-24T23:34:38.774Z,23.38
2023-05-24T23:37:08.643Z,23.19
2023-05-24T23:39:36.951Z,23.06
2023-05-24T23:42:05.525Z,23.01
2023-05-24T23:44:33.905Z,22.89
2023-05-24T23:47:03.054Z,22.68
2023-05-24T23:49:31.569Z,22.53
2023-05-24T23:51:59.967Z,22.46
2023-05-24T23:54:28.631Z,22.38
2023-05-24T23:56:56.968Z,22.31
2023-05-24T23:59:25.319Z,22.20
